sensor_id;sensor_type;location;lat;lon;timestamp;P1;durP1;ratioP1;P2;durP2;ratioP2
17414;SDS011;8825;48.086;16.426;2023-08-07T00:02:01;0.77;;;0.77;;
17414;SDS011;8825;48.086;16.426;2023-08-07T00:04:29;0.80;;;0.80;;
17414;SDS011;8825;48.086;16.426;2023-08-07T00:06:57;1.10;;;1.00;;
17414;SDS011;8825;48.086;16.426;2023-08-07T00:09:24;0.70;;;0.70;;
17414;SDS011;8825;48.086;16.426;2023-08-07T00:11:52;1.63;;;0.90;;
17414;SDS011;8825;48.086;16.426;2023-08-07T00:14:19;1.20;;;0.90;;
17414;SDS011;8825;48.086;16.426;2023-08-07T00:16:47;0.80;;;0.80;;
17414;SDS011;8825;48.086;16.426;2023-08-07T00:19:14;1.60;;;0.90;;
17414;SDS011;8825;48.086;16.426;2023-08-07T00:21:42;1.00;;;0.90;;
17414;SDS011;8825;48.086;16.426;2023-08-07T00:24:09;0.87;;;0.87;;
17414;SDS011;8825;48.086;16.426;2023-08-07T00:26:37;1.27;;;0.73;;
17414;SDS011;8825;48.086;16.426;2023-08-07T00:29:04;1.70;;;0.80;;
17414;SDS011;8825;48.086;16.426;2023-08-07T00:31:32;1.00;;;0.90;;
17414;SDS011;8825;48.086;16.426;2023-08-07T00:33:59;1.47;;;0.83;;
17414;SDS011;8825;48.086;16.426;2023-08-07T00:36:28;0.80;;;0.80;;
17414;SDS011;8825;48.086;16.426;2023-08-07T00:38:57;0.87;;;0.87;;
17414;SDS011;8825;48.086;16.426;2023-08-07T00:41:24;0.90;;;0.90;;
17414;SDS011;8825;48.086;16.426;2023-08-07T00:43:51;0.80;;;0.80;;
17414;SDS011;8825;48.086;16.426;2023-08-07T00:46:19;0.80;;;0.77;;
17414;SDS011;8825;48.086;16.426;2023-08-07T00:48:47;0.80;;;0.80;;
17414;SDS011;8825;48.086;16.426;2023-08-07T00:51:14;1.20;;;1.00;;
17414;SDS011;8825;48.086;16.426;2023-08-07T00:53:42;0.70;;;0.70;;
17414;SDS011;8825;48.086;16.426;2023-08-07T00:56:10;1.83;;;0.83;;
17414;SDS011;8825;48.086;16.426;2023-08-07T00:58:38;0.70;;;0.70;;
17414;SDS011;8825;48.086;16.426;2023-08-07T01:01:06;2.27;;;0.93;;
17414;SDS011;8825;48.086;16.426;2023-08-07T01:03:34;0.70;;;0.70;;
17414;SDS011;8825;48.086;16.426;2023-08-07T01:06:02;1.07;;;0.90;;
17414;SDS011;8825;48.086;16.426;2023-08-07T01:08:29;1.03;;;0.97;;
17414;SDS011;8825;48.086;16.426;2023-08-07T01:16:35;1.33;;;0.73;;
17414;SDS011;8825;48.086;16.426;2023-08-07T01:19:04;1.20;;;1.00;;
17414;SDS011;8825;48.086;16.426;2023-08-07T01:21:34;1.13;;;1.03;;
17414;SDS011;8825;48.086;16.426;2023-08-07T01:24:02;1.67;;;1.10;;
17414;SDS011;8825;48.086;16.426;2023-08-07T01:26:30;0.90;;;0.90;;
17414;SDS011;8825;48.086;16.426;2023-08-07T01:29:06;1.10;;;1.00;;
17414;SDS011;8825;48.086;16.426;2023-08-07T01:31:40;1.20;;;1.10;;
17414;SDS011;8825;48.086;16.426;2023-08-07T01:34:10;1.70;;;0.93;;
17414;SDS011;8825;48.086;16.426;2023-08-07T01:36:41;2.17;;;1.13;;
17414;SDS011;8825;48.086;16.426;2023-08-07T01:39:09;1.73;;;0.83;;
17414;SDS011;8825;48.086;16.426;2023-08-07T01:41:38;2.03;;;1.17;;
17414;SDS011;8825;48.086;16.426;2023-08-07T01:44:07;1.10;;;1.00;;
17414;SDS011;8825;48.086;16.426;2023-08-07T01:46:35;1.70;;;1.00;;
17414;SDS011;8825;48.086;16.426;2023-08-07T01:49:02;2.10;;;1.20;;
17414;SDS011;8825;48.086;16.426;2023-08-07T01:51:30;1.30;;;1.10;;
17414;SDS011;8825;48.086;16.426;2023-08-07T01:53:57;1.30;;;1.10;;
17414;SDS011;8825;48.086;16.426;2023-08-07T01:56:25;2.30;;;1.10;;
17414;SDS011;8825;48.086;16.426;2023-08-07T01:58:52;0.93;;;0.90;;
17414;SDS011;8825;48.086;16.426;2023-08-07T02:01:20;1.10;;;1.00;;
17414;SDS011;8825;48.086;16.426;2023-08-07T02:03:47;1.20;;;1.10;;
17414;SDS011;8825;48.086;16.426;2023-08-07T02:06:15;1.63;;;1.40;;
17414;SDS011;8825;48.086;16.426;2023-08-07T02:08:42;1.33;;;1.03;;
17414;SDS011;8825;48.086;16.426;2023-08-07T02:11:10;1.23;;;1.07;;
17414;SDS011;8825;48.086;16.426;2023-08-07T02:13:37;1.40;;;1.30;;
17414;SDS011;8825;48.086;16.426;2023-08-07T02:16:05;2.30;;;1.20;;
17414;SDS011;8825;48.086;16.426;2023-08-07T02:18:32;2.57;;;1.10;;
17414;SDS011;8825;48.086;16.426;2023-08-07T02:21:01;1.57;;;1.20;;
17414;SDS011;8825;48.086;16.426;2023-08-07T02:23:29;1.73;;;1.13;;
17414;SDS011;8825;48.086;16.426;2023-08-07T02:25:56;1.30;;;1.20;;
17414;SDS011;8825;48.086;16.426;2023-08-07T02:28:24;1.80;;;1.30;;
17414;SDS011;8825;48.086;16.426;2023-08-07T02:30:51;1.23;;;1.00;;
17414;SDS011;8825;48.086;16.426;2023-08-07T02:33:20;1.40;;;1.30;;
17414;SDS011;8825;48.086;16.426;2023-08-07T02:35:47;1.57;;;1.20;;
17414;SDS011;8825;48.086;16.426;2023-08-07T02:38:16;2.07;;;1.40;;
17414;SDS011;8825;48.086;16.426;2023-08-07T02:40:44;1.30;;;1.20;;
17414;SDS011;8825;48.086;16.426;2023-08-07T02:43:11;2.07;;;1.00;;
17414;SDS011;8825;48.086;16.426;2023-08-07T02:48:26;1.17;;;1.00;;
17414;SDS011;8825;48.086;16.426;2023-08-07T02:50:53;1.10;;;1.00;;
17414;SDS011;8825;48.086;16.426;2023-08-07T02:53:21;1.20;;;1.10;;
17414;SDS011;8825;48.086;16.426;2023-08-07T02:55:48;2.07;;;1.00;;
17414;SDS011;8825;48.086;16.426;2023-08-07T02:58:16;1.10;;;1.00;;
17414;SDS011;8825;48.086;16.426;2023-08-07T03:00:43;1.53;;;1.00;;
17414;SDS011;8825;48.086;16.426;2023-08-07T03:03:11;1.30;;;1.20;;
17414;SDS011;8825;48.086;16.426;2023-08-07T03:05:38;0.90;;;0.90;;
17414;SDS011;8825;48.086;16.426;2023-08-07T03:08:07;1.17;;;1.00;;
17414;SDS011;8825;48.086;16.426;2023-08-07T03:10:35;3.97;;;1.10;;
17414;SDS011;8825;48.086;16.426;2023-08-07T03:13:02;1.93;;;1.13;;
17414;SDS011;8825;48.086;16.426;2023-08-07T03:15:30;2.67;;;1.20;;
17414;SDS011;8825;48.086;16.426;2023-08-07T03:17:57;3.83;;;1.20;;
17414;SDS011;8825;48.086;16.426;2023-08-07T03:20:25;1.20;;;1.10;;
17414;SDS011;8825;48.086;16.426;2023-08-07T03:22:52;1.10;;;1.00;;
17414;SDS011;8825;48.086;16.426;2023-08-07T03:25:20;1.20;;;1.10;;
17414;SDS011;8825;48.086;16.426;2023-08-07T03:27:48;3.50;;;1.10;;
17414;SDS011;8825;48.086;16.426;2023-08-07T03:30:15;1.57;;;1.20;;
17414;SDS011;8825;48.086;16.426;2023-08-07T03:32:43;1.93;;;1.00;;
17414;SDS011;8825;48.086;16.426;2023-08-07T03:35:10;1.40;;;1.00;;
17414;SDS011;8825;48.086;16.426;2023-08-07T03:37:38;1.07;;;1.07;;
17414;SDS011;8825;48.086;16.426;2023-08-07T03:40:06;2.53;;;1.10;;
17414;SDS011;8825;48.086;16.426;2023-08-07T03:42:34;2.20;;;0.90;;
17414;SDS011;8825;48.086;16.426;2023-08-07T03:45:01;0.90;;;0.90;;
17414;SDS011;8825;48.086;16.426;2023-08-07T03:47:29;1.20;;;0.90;;
17414;SDS011;8825;48.086;16.426;2023-08-07T03:49:57;0.97;;;0.97;;
17414;SDS011;8825;48.086;16.426;2023-08-07T03:52:24;1.20;;;1.10;;
17414;SDS011;8825;48.086;16.426;2023-08-07T03:54:52;1.30;;;1.20;;
17414;SDS011;8825;48.086;16.426;2023-08-07T03:57:20;2.03;;;1.10;;
17414;SDS011;8825;48.086;16.426;2023-08-07T03:59:48;0.90;;;0.80;;
17414;SDS011;8825;48.086;16.426;2023-08-07T04:02:15;1.47;;;0.97;;
17414;SDS011;8825;48.086;16.426;2023-08-07T04:04:43;1.70;;;1.00;;
17414;SDS011;8825;48.086;16.426;2023-08-07T04:07:10;0.97;;;0.80;;
17414;SDS011;8825;48.086;16.426;2023-08-07T04:09:38;0.80;;;0.80;;
17414;SDS011;8825;48.086;16.426;2023-08-07T04:12:05;0.90;;;0.90;;
17414;SDS011;8825;48.086;16.426;2023-08-07T04:14:33;1.40;;;0.90;;
17414;SDS011;8825;48.086;16.426;2023-08-07T04:17:00;1.93;;;0.97;;
17414;SDS011;8825;48.086;16.426;2023-08-07T04:19:28;0.77;;;0.77;;
17414;SDS011;8825;48.086;16.426;2023-08-07T04:21:56;0.87;;;0.87;;
17414;SDS011;8825;48.086;16.426;2023-08-07T04:24:23;1.10;;;1.00;;
17414;SDS011;8825;48.086;16.426;2023-08-07T04:26:51;1.50;;;0.70;;
17414;SDS011;8825;48.086;16.426;2023-08-07T04:29:19;0.67;;;0.60;;
17414;SDS011;8825;48.086;16.426;2023-08-07T04:31:46;0.70;;;0.70;;
17414;SDS011;8825;48.086;16.426;2023-08-07T04:34:14;0.87;;;0.87;;
17414;SDS011;8825;48.086;16.426;2023-08-07T04:36:42;1.60;;;0.70;;
17414;SDS011;8825;48.086;16.426;2023-08-07T04:39:09;0.60;;;0.60;;
17414;SDS011;8825;48.086;16.426;2023-08-07T04:41:38;0.63;;;0.63;;
17414;SDS011;8825;48.086;16.426;2023-08-07T04:44:06;0.63;;;0.60;;
17414;SDS011;8825;48.086;16.426;2023-08-07T04:46:34;0.67;;;0.67;;
17414;SDS011;8825;48.086;16.426;2023-08-07T04:49:01;0.73;;;0.70;;
17414;SDS011;8825;48.086;16.426;2023-08-07T04:51:29;0.60;;;0.60;;
17414;SDS011;8825;48.086;16.426;2023-08-07T04:53:57;0.87;;;0.67;;
17414;SDS011;8825;48.086;16.426;2023-08-07T04:56:24;0.60;;;0.60;;
17414;SDS011;8825;48.086;16.426;2023-08-07T04:58:52;0.70;;;0.70;;
17414;SDS011;8825;48.086;16.426;2023-08-07T05:01:19;0.70;;;0.70;;
17414;SDS011;8825;48.086;16.426;2023-08-07T05:03:47;1.00;;;0.87;;
17414;SDS011;8825;48.086;16.426;2023-08-07T05:06:14;0.70;;;0.70;;
17414;SDS011;8825;48.086;16.426;2023-08-07T05:08:42;1.57;;;0.67;;
17414;SDS011;8825;48.086;16.426;2023-08-07T05:11:09;1.00;;;0.50;;
17414;SDS011;8825;48.086;16.426;2023-08-07T05:13:37;0.63;;;0.63;;
17414;SDS011;8825;48.086;16.426;2023-08-07T05:16:04;0.70;;;0.70;;
17414;SDS011;8825;48.086;16.426;2023-08-07T05:18:32;0.53;;;0.53;;
17414;SDS011;8825;48.086;16.426;2023-08-07T05:20:59;0.70;;;0.60;;
17414;SDS011;8825;48.086;16.426;2023-08-07T05:23:27;0.50;;;0.50;;
17414;SDS011;8825;48.086;16.426;2023-08-07T05:25:54;0.50;;;0.50;;
17414;SDS011;8825;48.086;16.426;2023-08-07T05:28:22;0.90;;;0.60;;
17414;SDS011;8825;48.086;16.426;2023-08-07T05:30:49;0.40;;;0.40;;
17414;SDS011;8825;48.086;16.426;2023-08-07T05:33:17;0.60;;;0.60;;
17414;SDS011;8825;48.086;16.426;2023-08-07T05:35:44;0.60;;;0.43;;
17414;SDS011;8825;48.086;16.426;2023-08-07T05:38:12;0.50;;;0.50;;
17414;SDS011;8825;48.086;16.426;2023-08-07T05:40:39;0.60;;;0.60;;
17414;SDS011;8825;48.086;16.426;2023-08-07T05:43:07;0.40;;;0.40;;
17414;SDS011;8825;48.086;16.426;2023-08-07T05:45:34;0.50;;;0.50;;
17414;SDS011;8825;48.086;16.426;2023-08-07T05:48:02;0.50;;;0.50;;
17414;SDS011;8825;48.086;16.426;2023-08-07T05:50:29;0.40;;;0.40;;
17414;SDS011;8825;48.086;16.426;2023-08-07T05:52:57;1.07;;;0.50;;
17414;SDS011;8825;48.086;16.426;2023-08-07T05:55:24;0.60;;;0.60;;
17414;SDS011;8825;48.086;16.426;2023-08-07T05:57:52;1.40;;;0.63;;
17414;SDS011;8825;48.086;16.426;2023-08-07T06:00:20;0.53;;;0.50;;
17414;SDS011;8825;48.086;16.426;2023-08-07T06:02:47;0.77;;;0.53;;
17414;SDS011;8825;48.086;16.426;2023-08-07T06:05:15;0.43;;;0.40;;
17414;SDS011;8825;48.086;16.426;2023-08-07T06:07:42;0.40;;;0.40;;
17414;SDS011;8825;48.086;16.426;2023-08-07T06:10:10;0.40;;;0.40;;
17414;SDS011;8825;48.086;16.426;2023-08-07T06:12:37;0.33;;;0.33;;
17414;SDS011;8825;48.086;16.426;2023-08-07T06:15:05;0.27;;;0.27;;
17414;SDS011;8825;48.086;16.426;2023-08-07T06:17:33;0.40;;;0.40;;
17414;SDS011;8825;48.086;16.426;2023-08-07T06:20:00;0.30;;;0.30;;
17414;SDS011;8825;48.086;16.426;2023-08-07T06:22:29;0.30;;;0.30;;
17414;SDS011;8825;48.086;16.426;2023-08-07T06:24:58;0.40;;;0.40;;
17414;SDS011;8825;48.086;16.426;2023-08-07T06:27:25;0.30;;;0.30;;
17414;SDS011;8825;48.086;16.426;2023-08-07T06:29:53;0.30;;;0.30;;
17414;SDS011;8825;48.086;16.426;2023-08-07T06:32:21;0.30;;;0.30;;
17414;SDS011;8825;48.086;16.426;2023-08-07T06:34:49;0.40;;;0.40;;
17414;SDS011;8825;48.086;16.426;2023-08-07T06:37:16;0.30;;;0.30;;
17414;SDS011;8825;48.086;16.426;2023-08-07T06:39:44;0.30;;;0.30;;
17414;SDS011;8825;48.086;16.426;2023-08-07T06:42:13;1.03;;;0.40;;
17414;SDS011;8825;48.086;16.426;2023-08-07T06:44:40;0.30;;;0.30;;
17414;SDS011;8825;48.086;16.426;2023-08-07T06:47:08;0.37;;;0.37;;
17414;SDS011;8825;48.086;16.426;2023-08-07T06:49:36;0.60;;;0.60;;
17414;SDS011;8825;48.086;16.426;2023-08-07T06:52:04;0.30;;;0.30;;
17414;SDS011;8825;48.086;16.426;2023-08-07T06:54:32;0.97;;;0.50;;
17414;SDS011;8825;48.086;16.426;2023-08-07T06:56:59;0.47;;;0.47;;
17414;SDS011;8825;48.086;16.426;2023-08-07T06:59:27;0.40;;;0.40;;
17414;SDS011;8825;48.086;16.426;2023-08-07T07:01:54;0.40;;;0.40;;
17414;SDS011;8825;48.086;16.426;2023-08-07T07:04:22;1.70;;;0.50;;
17414;SDS011;8825;48.086;16.426;2023-08-07T07:06:49;0.93;;;0.40;;
17414;SDS011;8825;48.086;16.426;2023-08-07T07:09:17;0.70;;;0.50;;
17414;SDS011;8825;48.086;16.426;2023-08-07T07:11:44;0.87;;;0.50;;
17414;SDS011;8825;48.086;16.426;2023-08-07T07:14:12;0.60;;;0.60;;
17414;SDS011;8825;48.086;16.426;2023-08-07T07:16:39;0.50;;;0.50;;
17414;SDS011;8825;48.086;16.426;2023-08-07T07:19:07;1.00;;;0.50;;
17414;SDS011;8825;48.086;16.426;2023-08-07T07:21:35;0.53;;;0.53;;
17414;SDS011;8825;48.086;16.426;2023-08-07T07:24:03;0.33;;;0.33;;
17414;SDS011;8825;48.086;16.426;2023-08-07T07:26:32;0.57;;;0.57;;
17414;SDS011;8825;48.086;16.426;2023-08-07T07:28:59;0.60;;;0.60;;
17414;SDS011;8825;48.086;16.426;2023-08-07T07:31:27;1.57;;;0.70;;
17414;SDS011;8825;48.086;16.426;2023-08-07T07:33:55;1.63;;;0.53;;
17414;SDS011;8825;48.086;16.426;2023-08-07T07:36:22;0.57;;;0.57;;
17414;SDS011;8825;48.086;16.426;2023-08-07T07:38:50;0.40;;;0.40;;
17414;SDS011;8825;48.086;16.426;2023-08-07T07:41:17;0.60;;;0.60;;
17414;SDS011;8825;48.086;16.426;2023-08-07T07:43:46;0.60;;;0.60;;
17414;SDS011;8825;48.086;16.426;2023-08-07T07:46:13;0.60;;;0.60;;
17414;SDS011;8825;48.086;16.426;2023-08-07T07:48:41;1.17;;;0.67;;
17414;SDS011;8825;48.086;16.426;2023-08-07T07:51:08;1.67;;;1.03;;
17414;SDS011;8825;48.086;16.426;2023-08-07T07:53:36;0.80;;;0.73;;
17414;SDS011;8825;48.086;16.426;2023-08-07T07:56:03;1.07;;;0.80;;
17414;SDS011;8825;48.086;16.426;2023-08-07T07:58:31;0.60;;;0.60;;
17414;SDS011;8825;48.086;16.426;2023-08-07T08:00:58;0.70;;;0.70;;
17414;SDS011;8825;48.086;16.426;2023-08-07T08:03:26;0.70;;;0.70;;
17414;SDS011;8825;48.086;16.426;2023-08-07T08:05:54;2.43;;;0.70;;
17414;SDS011;8825;48.086;16.426;2023-08-07T08:08:21;0.70;;;0.70;;
17414;SDS011;8825;48.086;16.426;2023-08-07T08:10:49;0.77;;;0.70;;
17414;SDS011;8825;48.086;16.426;2023-08-07T08:13:17;1.07;;;0.60;;
17414;SDS011;8825;48.086;16.426;2023-08-07T08:15:45;1.43;;;0.73;;
17414;SDS011;8825;48.086;16.426;2023-08-07T08:18:12;1.37;;;0.80;;
17414;SDS011;8825;48.086;16.426;2023-08-07T08:20:40;1.47;;;0.80;;
17414;SDS011;8825;48.086;16.426;2023-08-07T08:23:07;3.17;;;0.80;;
17414;SDS011;8825;48.086;16.426;2023-08-07T08:25:35;0.60;;;0.60;;
17414;SDS011;8825;48.086;16.426;2023-08-07T08:28:03;0.93;;;0.80;;
17414;SDS011;8825;48.086;16.426;2023-08-07T08:30:31;0.83;;;0.80;;
17414;SDS011;8825;48.086;16.426;2023-08-07T08:32:58;0.80;;;0.80;;
17414;SDS011;8825;48.086;16.426;2023-08-07T08:35:25;1.47;;;0.80;;
17414;SDS011;8825;48.086;16.426;2023-08-07T08:37:53;1.33;;;0.80;;
17414;SDS011;8825;48.086;16.426;2023-08-07T08:40:21;0.70;;;0.70;;
17414;SDS011;8825;48.086;16.426;2023-08-07T08:42:48;0.70;;;0.70;;
17414;SDS011;8825;48.086;16.426;2023-08-07T08:45:18;0.70;;;0.70;;
17414;SDS011;8825;48.086;16.426;2023-08-07T08:47:48;0.97;;;0.87;;
17414;SDS011;8825;48.086;16.426;2023-08-07T08:50:18;1.13;;;0.90;;
17414;SDS011;8825;48.086;16.426;2023-08-07T08:52:46;1.20;;;0.97;;
17414;SDS011;8825;48.086;16.426;2023-08-07T08:55:16;2.90;;;0.80;;
17414;SDS011;8825;48.086;16.426;2023-08-07T08:57:47;1.53;;;0.87;;
17414;SDS011;8825;48.086;16.426;2023-08-07T09:00:15;0.80;;;0.80;;
17414;SDS011;8825;48.086;16.426;2023-08-07T09:02:44;3.23;;;1.10;;
17414;SDS011;8825;48.086;16.426;2023-08-07T09:05:17;1.17;;;0.90;;
17414;SDS011;8825;48.086;16.426;2023-08-07T09:07:48;0.93;;;0.83;;
17414;SDS011;8825;48.086;16.426;2023-08-07T09:10:16;1.47;;;0.90;;
17414;SDS011;8825;48.086;16.426;2023-08-07T09:13:03;0.80;;;0.80;;
17414;SDS011;8825;48.086;16.426;2023-08-07T09:15:29;1.10;;;0.70;;
17414;SDS011;8825;48.086;16.426;2023-08-07T09:17:58;2.27;;;1.07;;
17414;SDS011;8825;48.086;16.426;2023-08-07T09:20:27;1.03;;;0.83;;
17414;SDS011;8825;48.086;16.426;2023-08-07T09:22:54;1.80;;;0.77;;
17414;SDS011;8825;48.086;16.426;2023-08-07T09:25:31;2.70;;;0.83;;
17414;SDS011;8825;48.086;16.426;2023-08-07T09:28:03;0.90;;;0.90;;
17414;SDS011;8825;48.086;16.426;2023-08-07T09:30:32;1.00;;;0.90;;
17414;SDS011;8825;48.086;16.426;2023-08-07T09:33:02;1.93;;;0.90;;
17414;SDS011;8825;48.086;16.426;2023-08-07T09:35:31;1.73;;;0.87;;
17414;SDS011;8825;48.086;16.426;2023-08-07T09:38:00;2.13;;;0.90;;
17414;SDS011;8825;48.086;16.426;2023-08-07T09:40:29;1.03;;;0.80;;
17414;SDS011;8825;48.086;16.426;2023-08-07T09:42:56;2.83;;;1.00;;
17414;SDS011;8825;48.086;16.426;2023-08-07T09:45:27;2.43;;;1.00;;
17414;SDS011;8825;48.086;16.426;2023-08-07T09:47:57;2.00;;;1.03;;
17414;SDS011;8825;48.086;16.426;2023-08-07T09:50:33;0.80;;;0.80;;
17414;SDS011;8825;48.086;16.426;2023-08-07T09:53:00;0.93;;;0.90;;
17414;SDS011;8825;48.086;16.426;2023-08-07T09:55:28;0.83;;;0.83;;
17414;SDS011;8825;48.086;16.426;2023-08-07T09:57:56;1.37;;;1.00;;
17414;SDS011;8825;48.086;16.426;2023-08-07T10:00:26;1.00;;;0.90;;
17414;SDS011;8825;48.086;16.426;2023-08-07T10:02:53;0.93;;;0.90;;
17414;SDS011;8825;48.086;16.426;2023-08-07T10:05:21;1.43;;;0.93;;
17414;SDS011;8825;48.086;16.426;2023-08-07T10:07:49;0.83;;;0.83;;
17414;SDS011;8825;48.086;16.426;2023-08-07T10:10:17;1.00;;;0.90;;
17414;SDS011;8825;48.086;16.426;2023-08-07T10:12:46;0.87;;;0.87;;
17414;SDS011;8825;48.086;16.426;2023-08-07T10:15:15;1.27;;;0.90;;
17414;SDS011;8825;48.086;16.426;2023-08-07T10:17:42;1.00;;;0.83;;
17414;SDS011;8825;48.086;16.426;2023-08-07T10:20:11;0.90;;;0.90;;
17414;SDS011;8825;48.086;16.426;2023-08-07T10:22:38;0.83;;;0.83;;
17414;SDS011;8825;48.086;16.426;2023-08-07T10:25:07;0.90;;;0.90;;
17414;SDS011;8825;48.086;16.426;2023-08-07T10:27:36;0.80;;;0.80;;
17414;SDS011;8825;48.086;16.426;2023-08-07T10:30:06;1.97;;;1.10;;
17414;SDS011;8825;48.086;16.426;2023-08-07T10:32:36;1.20;;;0.87;;
17414;SDS011;8825;48.086;16.426;2023-08-07T10:35:04;0.90;;;0.87;;
17414;SDS011;8825;48.086;16.426;2023-08-07T10:37:38;0.80;;;0.80;;
17414;SDS011;8825;48.086;16.426;2023-08-07T10:40:07;0.93;;;0.83;;
17414;SDS011;8825;48.086;16.426;2023-08-07T10:45:27;1.43;;;0.83;;
17414;SDS011;8825;48.086;16.426;2023-08-07T10:48:01;1.53;;;0.90;;
17414;SDS011;8825;48.086;16.426;2023-08-07T10:50:56;1.00;;;0.90;;
17414;SDS011;8825;48.086;16.426;2023-08-07T10:53:31;1.47;;;1.10;;
17414;SDS011;8825;48.086;16.426;2023-08-07T10:56:04;1.30;;;1.03;;
17414;SDS011;8825;48.086;16.426;2023-08-07T10:58:35;1.10;;;1.00;;
17414;SDS011;8825;48.086;16.426;2023-08-07T11:01:20;1.33;;;1.10;;
17414;SDS011;8825;48.086;16.426;2023-08-07T11:04:11;0.93;;;0.83;;
17414;SDS011;8825;48.086;16.426;2023-08-07T11:06:23;1.10;;;1.00;;
17414;SDS011;8825;48.086;16.426;2023-08-07T11:08:57;0.93;;;0.90;;
17414;SDS011;8825;48.086;16.426;2023-08-07T11:11:38;1.10;;;1.00;;
17414;SDS011;8825;48.086;16.426;2023-08-07T11:14:08;1.30;;;1.10;;
17414;SDS011;8825;48.086;16.426;2023-08-07T11:16:37;1.30;;;1.20;;
17414;SDS011;8825;48.086;16.426;2023-08-07T11:19:05;1.30;;;1.20;;
17414;SDS011;8825;48.086;16.426;2023-08-07T11:21:32;2.43;;;1.00;;
17414;SDS011;8825;48.086;16.426;2023-08-07T11:24:01;1.10;;;1.00;;
17414;SDS011;8825;48.086;16.426;2023-08-07T11:26:28;0.83;;;0.83;;
17414;SDS011;8825;48.086;16.426;2023-08-07T11:28:56;1.07;;;1.00;;
17414;SDS011;8825;48.086;16.426;2023-08-07T11:31:24;0.90;;;0.90;;
17414;SDS011;8825;48.086;16.426;2023-08-07T11:33:56;1.27;;;1.13;;
17414;SDS011;8825;48.086;16.426;2023-08-07T11:36:25;1.20;;;1.10;;
17414;SDS011;8825;48.086;16.426;2023-08-07T11:38:53;1.03;;;1.03;;
17414;SDS011;8825;48.086;16.426;2023-08-07T11:41:20;1.03;;;1.00;;
17414;SDS011;8825;48.086;16.426;2023-08-07T11:43:48;1.73;;;0.90;;
17414;SDS011;8825;48.086;16.426;2023-08-07T11:46:15;2.13;;;1.40;;
17414;SDS011;8825;48.086;16.426;2023-08-07T11:48:43;1.90;;;1.50;;
17414;SDS011;8825;48.086;16.426;2023-08-07T11:51:11;1.20;;;1.10;;
17414;SDS011;8825;48.086;16.426;2023-08-07T11:53:40;1.40;;;1.13;;
17414;SDS011;8825;48.086;16.426;2023-08-07T11:56:12;1.10;;;1.03;;
17414;SDS011;8825;48.086;16.426;2023-08-07T11:58:44;1.10;;;1.10;;
17414;SDS011;8825;48.086;16.426;2023-08-07T12:01:13;1.33;;;1.23;;
17414;SDS011;8825;48.086;16.426;2023-08-07T12:04:29;1.20;;;1.10;;
17414;SDS011;8825;48.086;16.426;2023-08-07T12:06:19;1.40;;;1.27;;
17414;SDS011;8825;48.086;16.426;2023-08-07T12:08:48;1.27;;;1.17;;
17414;SDS011;8825;48.086;16.426;2023-08-07T12:11:17;1.50;;;1.40;;
17414;SDS011;8825;48.086;16.426;2023-08-07T12:13:46;1.20;;;1.10;;
17414;SDS011;8825;48.086;16.426;2023-08-07T12:16:15;1.20;;;1.10;;
17414;SDS011;8825;48.086;16.426;2023-08-07T12:18:44;1.20;;;1.03;;
17414;SDS011;8825;48.086;16.426;2023-08-07T12:21:14;1.53;;;1.10;;
17414;SDS011;8825;48.086;16.426;2023-08-07T12:23:44;1.43;;;1.33;;
17414;SDS011;8825;48.086;16.426;2023-08-07T12:26:16;1.67;;;1.57;;
17414;SDS011;8825;48.086;16.426;2023-08-07T12:28:44;2.17;;;1.30;;
17414;SDS011;8825;48.086;16.426;2023-08-07T12:31:12;2.17;;;1.60;;
17414;SDS011;8825;48.086;16.426;2023-08-07T12:33:39;1.90;;;1.30;;
17414;SDS011;8825;48.086;16.426;2023-08-07T12:36:07;1.20;;;1.10;;
17414;SDS011;8825;48.086;16.426;2023-08-07T12:38:34;1.27;;;1.17;;
17414;SDS011;8825;48.086;16.426;2023-08-07T12:41:02;1.83;;;1.50;;
17414;SDS011;8825;48.086;16.426;2023-08-07T12:43:29;2.20;;;1.40;;
17414;SDS011;8825;48.086;16.426;2023-08-07T12:45:59;2.53;;;1.33;;
17414;SDS011;8825;48.086;16.426;2023-08-07T12:48:26;3.03;;;1.30;;
17414;SDS011;8825;48.086;16.426;2023-08-07T12:50:54;1.33;;;1.23;;
17414;SDS011;8825;48.086;16.426;2023-08-07T12:53:21;1.50;;;1.40;;
17414;SDS011;8825;48.086;16.426;2023-08-07T12:55:49;1.43;;;1.33;;
17414;SDS011;8825;48.086;16.426;2023-08-07T12:58:16;2.23;;;1.50;;
17414;SDS011;8825;48.086;16.426;2023-08-07T13:00:46;1.53;;;1.40;;
17414;SDS011;8825;48.086;16.426;2023-08-07T13:03:13;1.73;;;1.63;;
17414;SDS011;8825;48.086;16.426;2023-08-07T13:05:41;1.93;;;1.50;;
17414;SDS011;8825;48.086;16.426;2023-08-07T13:08:08;1.50;;;1.40;;
17414;SDS011;8825;48.086;16.426;2023-08-07T13:10:36;1.50;;;1.40;;
17414;SDS011;8825;48.086;16.426;2023-08-07T13:13:04;2.87;;;1.50;;
17414;SDS011;8825;48.086;16.426;2023-08-07T13:15:32;2.07;;;1.50;;
17414;SDS011;8825;48.086;16.426;2023-08-07T13:18:00;1.60;;;1.43;;
17414;SDS011;8825;48.086;16.426;2023-08-07T13:20:27;1.53;;;1.40;;
17414;SDS011;8825;48.086;16.426;2023-08-07T13:22:56;1.70;;;1.60;;
17414;SDS011;8825;48.086;16.426;2023-08-07T13:25:24;3.70;;;1.60;;
17414;SDS011;8825;48.086;16.426;2023-08-07T13:27:51;3.63;;;1.40;;
17414;SDS011;8825;48.086;16.426;2023-08-07T13:30:19;2.40;;;1.67;;
17414;SDS011;8825;48.086;16.426;2023-08-07T13:32:47;2.93;;;1.60;;
17414;SDS011;8825;48.086;16.426;2023-08-07T13:35:14;2.83;;;1.53;;
17414;SDS011;8825;48.086;16.426;2023-08-07T13:37:42;1.53;;;1.43;;
17414;SDS011;8825;48.086;16.426;2023-08-07T13:40:10;2.53;;;1.60;;
17414;SDS011;8825;48.086;16.426;2023-08-07T13:42:39;1.67;;;1.43;;
17414;SDS011;8825;48.086;16.426;2023-08-07T13:45:07;3.77;;;1.67;;
17414;SDS011;8825;48.086;16.426;2023-08-07T13:47:35;1.77;;;1.57;;
17414;SDS011;8825;48.086;16.426;2023-08-07T13:50:03;3.17;;;1.50;;
17414;SDS011;8825;48.086;16.426;2023-08-07T13:52:33;1.50;;;1.40;;
17414;SDS011;8825;48.086;16.426;2023-08-07T13:55:01;2.20;;;1.47;;
17414;SDS011;8825;48.086;16.426;2023-08-07T13:57:29;1.83;;;1.40;;
17414;SDS011;8825;48.086;16.426;2023-08-07T13:59:56;1.83;;;1.30;;
17414;SDS011;8825;48.086;16.426;2023-08-07T14:02:23;1.83;;;1.30;;
17414;SDS011;8825;48.086;16.426;2023-08-07T14:04:51;1.60;;;1.30;;
17414;SDS011;8825;48.086;16.426;2023-08-07T14:07:18;1.40;;;1.30;;
17414;SDS011;8825;48.086;16.426;2023-08-07T14:09:46;1.43;;;1.33;;
17414;SDS011;8825;48.086;16.426;2023-08-07T14:12:13;1.63;;;1.53;;
17414;SDS011;8825;48.086;16.426;2023-08-07T14:14:41;1.70;;;1.40;;
17414;SDS011;8825;48.086;16.426;2023-08-07T14:17:08;1.40;;;1.30;;
17414;SDS011;8825;48.086;16.426;2023-08-07T14:19:36;2.37;;;1.40;;
17414;SDS011;8825;48.086;16.426;2023-08-07T14:22:04;1.40;;;1.30;;
17414;SDS011;8825;48.086;16.426;2023-08-07T14:24:31;1.50;;;1.40;;
17414;SDS011;8825;48.086;16.426;2023-08-07T14:26:59;1.40;;;1.30;;
17414;SDS011;8825;48.086;16.426;2023-08-07T14:29:26;2.47;;;1.40;;
17414;SDS011;8825;48.086;16.426;2023-08-07T14:31:54;2.13;;;1.40;;
17414;SDS011;8825;48.086;16.426;2023-08-07T14:34:21;2.03;;;1.40;;
17414;SDS011;8825;48.086;16.426;2023-08-07T14:36:49;1.47;;;1.37;;
17414;SDS011;8825;48.086;16.426;2023-08-07T14:39:17;1.57;;;1.47;;
17414;SDS011;8825;48.086;16.426;2023-08-07T14:41:45;1.40;;;1.30;;
17414;SDS011;8825;48.086;16.426;2023-08-07T14:44:14;1.73;;;1.47;;
17414;SDS011;8825;48.086;16.426;2023-08-07T14:46:41;2.30;;;1.63;;
17414;SDS011;8825;48.086;16.426;2023-08-07T14:49:09;1.60;;;1.50;;
17414;SDS011;8825;48.086;16.426;2023-08-07T14:51:36;2.00;;;1.60;;
17414;SDS011;8825;48.086;16.426;2023-08-07T14:54:04;1.60;;;1.50;;
17414;SDS011;8825;48.086;16.426;2023-08-07T14:56:31;2.57;;;1.53;;
17414;SDS011;8825;48.086;16.426;2023-08-07T14:58:59;1.60;;;1.50;;
17414;SDS011;8825;48.086;16.426;2023-08-07T15:01:26;1.70;;;1.57;;
17414;SDS011;8825;48.086;16.426;2023-08-07T15:03:54;3.70;;;1.80;;
17414;SDS011;8825;48.086;16.426;2023-08-07T15:06:21;2.20;;;1.80;;